createdAt,value
2019-06-27T16:41:14.044Z,101305.69
2019-06-27T16:44:51.657Z,101300.57
2019-06-27T16:47:55.076Z,101302.95
2019-06-27T16:51:01.203Z,101305.84
2019-06-27T16:54:05.597Z,101298.63
2019-06-27T16:57:09.029Z,101296.85
2019-06-27T17:00:13.950Z,101303.27
2019-06-27T17:03:17.393Z,101297.98
2019-06-27T17:06:20.688Z,101305.09
2019-06-27T17:09:24.054Z,101312.80
2019-06-27T17:12:27.388Z,101304.13
2019-06-27T17:15:30.840Z,101307.34
2019-06-27T17:18:34.285Z,101305.49
2019-06-27T17:21:37.735Z,101304.63
2019-06-27T17:24:41.174Z,101310.08
2019-06-27T17:27:44.563Z,101302.59
2019-06-27T17:30:47.986Z,101308.88
2019-06-27T17:33:51.329Z,101319.13
2019-06-27T17:36:57.968Z,101303.27
2019-06-27T17:39:59.984Z,101306.81
2019-06-27T17:43:03.379Z,101313.50
2019-06-27T17:46:06.729Z,101321.14
2019-06-27T17:49:10.067Z,101319.43
2019-06-27T17:52:13.397Z,101315.69
2019-06-27T17:55:16.777Z,101314.47
2019-06-27T17:58:20.104Z,101327.52
2019-06-27T18:01:23.784Z,101330.30
2019-06-27T18:04:27.086Z,101331.30
2019-06-27T18:07:30.451Z,101335.42
2019-06-27T18:10:33.777Z,101337.28
2019-06-27T18:13:37.184Z,101330.84
2019-06-27T18:16:40.531Z,101347.45
2019-06-27T18:19:43.875Z,101333.41
2019-06-27T18:22:47.190Z,101336.52
2019-06-27T18:25:57.399Z,101334.05
2019-06-27T18:29:00.829Z,101334.77
2019-06-27T18:32:04.257Z,101344.84
2019-06-27T18:35:07.884Z,101345.19
2019-06-27T18:38:11.531Z,101339.05
2019-06-27T18:41:14.955Z,101350.09
2019-06-27T18:44:18.244Z,101353.64
2019-06-27T18:47:21.577Z,101351.80
2019-06-27T18:50:24.916Z,101350.23
2019-06-27T18:53:28.281Z,101355.27
2019-06-27T18:56:31.667Z,101357.17
2019-06-27T18:59:35.027Z,101358.09
2019-06-27T19:02:38.547Z,101364.05
2019-06-27T19:05:41.975Z,101363.38
2019-06-27T19:08:45.370Z,101368.60
2019-06-27T19:11:49.462Z,101370.11
2019-06-27T19:14:52.851Z,101369.84
2019-06-27T19:17:56.206Z,101374.72
2019-06-27T19:21:01.173Z,101375.61
2019-06-27T19:24:21.467Z,101382.53
2019-06-27T19:27:24.819Z,101388.56
2019-06-27T19:30:28.247Z,101390.02
2019-06-27T19:33:31.605Z,101392.17
2019-06-27T19:36:34.960Z,101399.63
2019-06-27T19:39:38.330Z,101409.44
2019-06-27T19:42:41.640Z,101413.85
2019-06-27T19:45:45.125Z,101423.41
2019-06-27T19:48:48.461Z,101429.66
2019-06-27T19:51:51.816Z,101433.77
2019-06-27T19:54:59.739Z,101435.67
2019-06-27T19:58:00.414Z,101441.19
2019-06-27T20:01:03.747Z,101438.38
2019-06-27T20:04:07.170Z,101441.38
2019-06-27T20:07:10.548Z,101445.73
2019-06-27T20:10:14.148Z,101442.59
2019-06-27T20:13:17.500Z,101450.43
2019-06-27T20:16:20.905Z,101448.37
2019-06-27T20:19:24.227Z,101454.56
2019-06-27T20:22:27.690Z,101457.47
2019-06-27T20:25:30.998Z,101466.53
2019-06-27T20:28:34.352Z,101465.77
2019-06-27T20:31:37.688Z,101464.48
2019-06-27T20:34:41.082Z,101469.85
2019-06-27T20:37:44.397Z,101472.05
2019-06-27T20:40:52.536Z,101474.63
2019-06-27T20:43:57.586Z,101477.26
2019-06-27T20:47:00.658Z,101479.33
2019-06-27T20:50:04.491Z,101481.66
2019-06-27T20:53:07.825Z,101486.70
2019-06-27T20:56:11.347Z,101484.69
2019-06-27T20:59:14.742Z,101486.39
2019-06-27T21:02:18.070Z,101499.08
2019-06-27T21:05:21.430Z,101498.82
2019-06-27T21:08:24.843Z,101502.88
2019-06-27T21:11:28.221Z,101507.12
2019-06-27T21:14:31.584Z,101504.32
2019-06-27T21:17:34.948Z,101502.13
2019-06-27T21:20:38.276Z,101516.50
2019-06-27T21:23:41.613Z,101515.75
2019-06-27T21:26:44.957Z,101517.39
2019-06-27T21:29:48.297Z,101512.20
2019-06-27T21:32:51.700Z,101524.56
2019-06-27T21:35:55.152Z,101521.78
2019-06-27T21:39:07.654Z,101522.23
2019-06-27T21:42:03.565Z,101524.45
2019-06-27T21:45:07.518Z,101522.48
2019-06-27T21:48:10.832Z,101523.61
2019-06-27T21:51:14.179Z,101524.97
2019-06-27T21:54:17.512Z,101525.19
2019-06-27T21:57:21.018Z,101522.63
2019-06-27T22:00:26.302Z,101522.45
2019-06-27T22:03:29.628Z,101526.59
2019-06-27T22:06:40.062Z,101530.35
2019-06-27T22:09:43.416Z,101530.64
2019-06-27T22:12:47.179Z,101527.86
2019-06-27T22:15:50.550Z,101525.88
2019-06-27T22:18:53.937Z,101535.22
2019-06-27T22:21:57.369Z,101536.75
2019-06-27T22:25:00.791Z,101532.93
2019-06-27T22:28:04.250Z,101544.06
2019-06-27T22:31:07.599Z,101541.66
2019-06-27T22:34:10.942Z,101545.13
2019-06-27T22:37:16.099Z,101544.05
2019-06-27T22:40:37.250Z,101546.27
2019-06-27T22:43:58.444Z,101548.44
2019-06-27T22:47:20.072Z,101544.55
2019-06-27T22:50:31.101Z,101539.05
2019-06-27T22:53:41.969Z,101543.42
2019-06-27T22:56:48.094Z,101539.94
2019-06-27T22:59:53.779Z,101542.82
2019-06-27T23:02:57.209Z,101548.06
2019-06-27T23:06:00.676Z,101550.84
2019-06-27T23:09:04.895Z,101549.06
2019-06-27T23:12:08.301Z,101549.38
2019-06-27T23:15:11.911Z,101548.42
2019-06-27T23:18:15.327Z,101547.86
2019-06-27T23:21:20.333Z,101543.61
2019-06-27T23:24:23.686Z,101542.49
2019-06-27T23:27:27.097Z,101537.84
2019-06-27T23:30:30.483Z,101536.45
2019-06-27T23:33:33.890Z,101542.37
2019-06-27T23:36:37.327Z,101542.11
2019-06-27T23:39:40.686Z,101538.87
2019-06-27T23:42:44.011Z,101531.64
2019-06-27T23:45:47.516Z,101524.17
2019-06-27T23:48:50.921Z,101527.36
2019-06-27T23:51:54.257Z,101523.91
2019-06-27T23:54:57.615Z,101517.05
2019-06-27T23:58:01.015Z,101522.03
